Search for airport 
image banner adimage banner adimage banner ad
image banner ad

9N3 - Seamans Field

Located in Factoryville, United States

ICAO - 9N3, IATA -

Data provided by Airmate  

General information

Coordinates: N41°35'22" W75°45'22"
Elevation is 1209 feet MSL.
Magnetic variation is -12° East
View others Airports in Pennsylvania

Operational data

Special qualification required
Current time UTC:
Current local time:
Weather at : KAVP - Wilkes-Barre/Scranton Intl ( 28 km )
METAR: KAVP 132054Z 22005KT 10SM BKN055 25/18 A2986 RMK AO2 SLP104 T02500178 58010
TAF: KAVP 131740Z 1318/1418 24006KT P6SM SCT018 BKN035 TEMPO 1318/1319 BKN018 BKN035 FM131900 23006KT P6SM SCT035 FM132200 19005KT P6SM VCTS SCT035CB TEMPO 1322/1402 3SM TSRA BR OVC030CB FM140200 17008KT 6SM -SHRA BR BKN016 OVC025 FM140800 20004KT 5SM BR VCSH BKN007 FM141500 23005KT P6SM VCSH BKN010
View NOTAMs / SUP AIP / TFR affecting this airport [VIEW]
Communications frequencies: [VIEW]

Runways:

RWY identifierQFULength (ft)Width (ft)SurfaceLDA (ft)
0424°250050ASPH
22204°250050ASPH

Airport contact information

Address: Factoryville United States

Other aviation service providers

Flight schools

Endless Mountains Air, Inc.

Endless Mountains Air, Inc.

Satellite view of 9N3